Time;durP1;ratioP1;P1;durP2;ratioP2;P2;SDS_P1;SDS_P2;PMS_P1;PMS_P2;Temp;Humidity;BMP_temperature;BMP_pressure;BME280_temperature;BME280_humidity;BME280_pressure;Samples;Min_cycle;Max_cycle;Signal;HPM_P1;HPM_P2
2022/12/03 00:00:25;;;;;;;15.73;6.50;;;2.90;99.90;;;;;;4882351;29;20210;-72
2022/12/03 00:02:54;;;;;;;16.87;7.90;;;2.90;99.90;;;;;;4882524;29;20211;-72
2022/12/03 00:05:20;;;;;;;16.40;7.23;;;2.90;99.90;;;;;;4882310;29;20546;-72
2022/12/03 00:07:47;;;;;;;16.20;7.87;;;2.80;99.90;;;;;;4882327;29;20320;-72
2022/12/03 00:10:14;;;;;;;16.63;7.70;;;2.80;99.90;;;;;;4882199;29;20432;-73
2022/12/03 00:12:41;;;;;;;16.80;7.97;;;2.90;99.90;;;;;;4882132;29;20667;-73
2022/12/03 00:15:09;;;;;;;18.47;7.77;;;2.90;99.90;;;;;;4882053;29;20310;-73
2022/12/03 00:17:36;;;;;;;15.50;7.53;;;2.90;99.90;;;;;;4881870;29;20230;-72
2022/12/03 00:20:06;;;;;;;11.83;6.00;;;2.90;99.90;;;;;;4882303;29;20211;-73
2022/12/03 00:22:32;;;;;;;14.33;6.27;;;2.80;99.90;;;;;;4882041;29;20215;-72
2022/12/03 00:24:59;;;;;;;12.93;6.63;;;2.90;99.90;;;;;;4882088;29;20599;-73
2022/12/03 00:27:26;;;;;;;18.40;7.47;;;2.80;99.90;;;;;;4881805;29;20231;-72
2022/12/03 00:29:53;;;;;;;13.80;6.90;;;2.90;99.90;;;;;;4881888;29;20215;-73
2022/12/03 00:32:19;;;;;;;14.57;6.10;;;2.90;99.90;;;;;;4881901;29;20239;-72
2022/12/03 00:34:46;;;;;;;16.43;7.60;;;3.00;99.90;;;;;;4881914;29;20225;-73
2022/12/03 00:37:14;;;;;;;15.03;7.90;;;2.90;99.90;;;;;;4881637;29;20619;-72
2022/12/03 00:39:41;;;;;;;14.73;6.70;;;2.80;99.90;;;;;;4881751;29;20673;-73
2022/12/03 00:42:08;;;;;;;18.00;7.60;;;2.90;99.90;;;;;;4881683;29;20250;-73
2022/12/03 00:44:35;;;;;;;18.77;6.40;;;2.90;99.90;;;;;;4881774;29;20290;-72
2022/12/03 00:47:02;;;;;;;14.70;6.40;;;2.80;99.90;;;;;;4881730;29;20227;-71
2022/12/03 00:49:28;;;;;;;13.60;7.30;;;2.70;99.90;;;;;;4881484;29;20756;-72
2022/12/03 00:51:55;;;;;;;15.27;7.97;;;2.70;99.90;;;;;;4881439;29;20242;-72
2022/12/03 00:54:23;;;;;;;13.90;6.90;;;2.80;99.90;;;;;;4881341;29;20222;-71
2022/12/03 00:56:50;;;;;;;15.57;7.40;;;2.70;99.90;;;;;;4881180;29;20234;-72
2022/12/03 00:59:17;;;;;;;16.13;7.47;;;2.70;99.90;;;;;;4881148;29;20696;-72
2022/12/03 01:01:44;;;;;;;17.23;7.30;;;2.80;99.90;;;;;;4881492;29;20249;-72
2022/12/03 01:04:10;;;;;;;16.73;7.63;;;2.80;99.90;;;;;;4881231;29;20220;-72
2022/12/03 01:06:38;;;;;;;15.50;6.43;;;2.80;99.90;;;;;;4880696;29;20579;-73
2022/12/03 01:09:05;;;;;;;15.07;6.67;;;2.80;99.90;;;;;;4880965;29;20773;-73
2022/12/03 01:11:40;;;;;;;13.67;7.27;;;2.90;99.90;;;;;;4881204;29;20243;-72
2022/12/03 01:14:08;;;;;;;13.67;7.33;;;2.80;99.90;;;;;;4881173;29;20302;-72
2022/12/03 01:16:35;;;;;;;15.27;7.10;;;2.90;99.90;;;;;;4881030;29;20582;-72
2022/12/03 01:19:03;;;;;;;15.27;7.57;;;2.80;99.90;;;;;;4880908;29;20211;-72
2022/12/03 01:21:30;;;;;;;11.83;5.97;;;2.80;99.90;;;;;;4880855;29;20221;-72
2022/12/03 01:23:57;;;;;;;13.87;6.80;;;2.80;99.90;;;;;;4881064;29;20659;-72
2022/12/03 01:26:24;;;;;;;19.03;7.23;;;2.70;99.90;;;;;;4881052;29;20230;-72
2022/12/03 01:28:53;;;;;;;13.87;6.70;;;2.70;99.90;;;;;;4880688;29;20242;-73
2022/12/03 01:34:04;;;;;;;13.13;6.73;;;2.80;99.90;;;;;;4880604;29;20234;-73
2022/12/03 01:36:33;;;;;;;19.97;7.83;;;2.90;99.90;;;;;;4880547;29;20670;-73
2022/12/03 01:38:59;;;;;;;13.93;7.30;;;2.80;99.90;;;;;;4880718;29;20283;-73
2022/12/03 01:41:27;;;;;;;16.77;7.67;;;2.80;99.90;;;;;;4880386;29;20226;-73
2022/12/03 01:43:56;;;;;;;15.37;6.43;;;2.90;99.90;;;;;;4880471;29;20214;-73
2022/12/03 01:46:29;;;;;;;16.97;8.03;;;2.80;99.90;;;;;;4880257;29;20602;-73
2022/12/03 01:48:56;;;;;;;14.00;6.33;;;2.80;99.90;;;;;;4880491;29;20322;-73
2022/12/03 01:51:23;;;;;;;12.27;7.13;;;2.80;99.90;;;;;;4880441;29;20245;-73
2022/12/03 01:53:50;;;;;;;19.13;8.50;;;2.80;99.90;;;;;;4880289;29;20221;-73
2022/12/03 01:56:18;;;;;;;15.83;6.77;;;2.90;99.90;;;;;;4880104;29;20218;-73
2022/12/03 01:58:46;;;;;;;13.57;6.50;;;2.90;99.90;;;;;;4880110;29;20227;-73
2022/12/03 02:01:17;;;;;;;15.93;6.00;;;2.90;99.90;;;;;;4880044;29;20583;-73
2022/12/03 02:03:44;;;;;;;12.07;6.33;;;2.70;99.90;;;;;;4880113;29;20696;-73
2022/12/03 02:06:16;;;;;;;15.07;6.53;;;2.80;99.90;;;;;;4880272;29;20685;-73
2022/12/03 02:08:43;;;;;;;14.07;6.87;;;2.70;99.90;;;;;;4880053;29;20231;-73
2022/12/03 02:11:21;;;;;;;15.67;7.10;;;2.70;99.90;;;;;;4879944;29;20241;-73
2022/12/03 02:13:53;;;;;;;15.23;6.37;;;2.80;99.90;;;;;;4879818;29;20215;-73
2022/12/03 02:16:21;;;;;;;21.33;7.60;;;2.80;99.90;;;;;;4879871;29;20219;-73
2022/12/03 02:18:48;;;;;;;16.70;5.57;;;2.90;99.90;;;;;;4879366;29;20233;-73
2022/12/03 02:21:22;;;;;;;13.77;6.73;;;3.10;99.90;;;;;;4879841;29;20211;-72
2022/12/03 02:24:00;;;;;;;15.03;6.43;;;3.00;99.90;;;;;;4879726;29;20207;-73
2022/12/03 02:26:29;;;;;;;13.07;5.97;;;2.90;99.90;;;;;;4879790;29;20214;-73
2022/12/03 02:28:56;;;;;;;15.47;6.97;;;2.90;99.90;;;;;;4879852;29;20291;-72
2022/12/03 02:31:23;;;;;;;13.10;7.27;;;2.80;99.90;;;;;;4879812;29;20235;-72
2022/12/03 02:33:51;;;;;;;14.80;7.33;;;2.90;99.90;;;;;;4879199;29;20218;-72
2022/12/03 02:36:17;;;;;;;17.17;7.20;;;2.90;99.90;;;;;;4879438;29;20215;-72
2022/12/03 02:38:46;;;;;;;12.67;6.27;;;2.90;99.90;;;;;;4879561;29;20619;-73
2022/12/03 02:42:33;;;;;;;14.37;6.47;;;2.80;99.90;;;;;;4879790;29;20226;-73
2022/12/03 02:44:06;;;;;;;15.17;6.97;;;2.90;99.90;;;;;;4879496;29;20208;-72
2022/12/03 02:46:33;;;;;;;13.50;6.67;;;2.90;99.90;;;;;;4879046;29;20630;-73
2022/12/03 02:49:01;;;;;;;15.13;6.77;;;2.90;99.90;;;;;;4879112;29;20570;-72
2022/12/03 02:51:28;;;;;;;15.60;7.03;;;2.80;99.90;;;;;;4879459;29;20242;-71
2022/12/03 02:53:56;;;;;;;16.80;7.07;;;2.80;99.90;;;;;;4879554;29;20211;-72
2022/12/03 02:56:27;;;;;;;17.60;7.17;;;2.80;99.90;;;;;;4879590;29;20298;-72
2022/12/03 02:58:57;;;;;;;15.73;7.27;;;2.90;99.90;;;;;;4879534;29;20227;-72
2022/12/03 03:01:25;;;;;;;12.37;5.80;;;2.80;99.90;;;;;;4880499;29;20667;-72
2022/12/03 03:03:53;;;;;;;17.80;7.30;;;2.80;99.90;;;;;;4881579;29;20213;-72
2022/12/03 03:06:21;;;;;;;15.70;7.60;;;2.80;99.90;;;;;;4881300;29;20214;-73
2022/12/03 03:08:48;;;;;;;18.83;8.10;;;3.00;99.90;;;;;;4879276;29;20231;-72
2022/12/03 03:11:15;;;;;;;15.53;7.67;;;3.00;99.90;;;;;;4879022;29;20238;-72
2022/12/03 03:13:42;;;;;;;18.70;7.57;;;2.90;99.90;;;;;;4879382;29;20222;-73
2022/12/03 03:16:09;;;;;;;14.87;6.60;;;2.80;99.90;;;;;;4879363;29;20211;-72
2022/12/03 03:18:37;;;;;;;11.93;6.50;;;2.70;99.90;;;;;;4879424;29;20235;-72
2022/12/03 03:21:05;;;;;;;17.93;8.10;;;2.70;99.90;;;;;;4879283;29;20215;-72
2022/12/03 03:23:32;;;;;;;19.53;7.80;;;2.70;99.90;;;;;;4879238;29;20309;-72
2022/12/03 03:26:01;;;;;;;16.10;7.03;;;2.70;99.90;;;;;;4879326;29;20302;-72
2022/12/03 03:28:30;;;;;;;16.77;7.23;;;2.70;99.90;;;;;;4878952;29;20238;-72
2022/12/03 03:30:58;;;;;;;18.97;6.93;;;2.70;99.90;;;;;;4880470;29;20233;-72
2022/12/03 03:33:25;;;;;;;15.03;7.00;;;2.80;99.90;;;;;;4882920;29;20301;-72
2022/12/03 03:35:54;;;;;;;16.17;7.60;;;2.70;99.90;;;;;;4882870;29;20215;-72
2022/12/03 03:38:22;;;;;;;15.90;7.27;;;2.70;99.90;;;;;;4883127;29;20227;-72
2022/12/03 03:40:51;;;;;;;17.50;7.07;;;2.70;99.90;;;;;;4882452;29;20218;-72
2022/12/03 03:43:18;;;;;;;11.47;6.47;;;2.80;99.90;;;;;;4882691;29;20213;-72
2022/12/03 03:45:45;;;;;;;18.73;7.73;;;2.90;99.90;;;;;;4882947;29;20211;-72
2022/12/03 03:48:13;;;;;;;17.43;6.77;;;2.80;99.90;;;;;;4882741;29;20253;-72
2022/12/03 03:50:40;;;;;;;17.40;7.10;;;2.90;99.90;;;;;;4882571;29;20207;-72
2022/12/03 03:53:08;;;;;;;20.30;8.30;;;2.90;99.90;;;;;;4882314;29;20241;-71
2022/12/03 03:55:35;;;;;;;13.63;6.20;;;3.10;99.90;;;;;;4882485;29;20219;-71
2022/12/03 03:58:02;;;;;;;17.43;7.07;;;3.00;99.90;;;;;;4882233;29;20253;-73
2022/12/03 04:00:30;;;;;;;19.17;7.37;;;2.80;99.90;;;;;;4882587;29;20241;-72
2022/12/03 04:02:57;;;;;;;15.30;6.87;;;2.80;99.90;;;;;;4882449;29;20309;-71
2022/12/03 04:05:25;;;;;;;15.93;7.43;;;2.90;99.90;;;;;;4882121;29;20215;-72
2022/12/03 04:07:51;;;;;;;15.20;6.53;;;2.90;99.90;;;;;;4882167;29;20241;-72
2022/12/03 04:13:04;;;;;;;14.93;6.73;;;3.00;99.90;;;;;;4882159;29;20238;-72
2022/12/03 04:15:31;;;;;;;18.23;7.17;;;3.00;99.90;;;;;;4881992;29;20221;-72
2022/12/03 04:20:42;;;;;;;19.87;8.43;;;2.90;99.90;;;;;;4882063;29;20207;-72
2022/12/03 04:23:08;;;;;;;17.83;8.57;;;2.90;99.90;;;;;;4882186;29;20214;-72
2022/12/03 04:36:30;;;;;;;17.27;7.00;;;3.00;99.90;;;;;;4881943;29;20255;-73
2022/12/03 04:38:57;;;;;;;16.57;7.33;;;3.00;99.90;;;;;;4881704;29;20231;-73
2022/12/03 04:41:25;;;;;;;13.37;6.73;;;2.90;99.90;;;;;;4880944;29;20622;-73
2022/12/03 04:46:36;;;;;;;15.90;7.73;;;2.90;99.90;;;;;;4881805;29;20206;-72
2022/12/03 04:49:03;;;;;;;16.73;6.97;;;3.10;99.90;;;;;;4881826;29;20583;-72
2022/12/03 04:51:30;;;;;;;17.20;7.70;;;3.20;99.90;;;;;;4881548;29;20246;-72
2022/12/03 04:53:56;;;;;;;18.13;8.00;;;3.10;99.90;;;;;;4881618;29;20570;-73
2022/12/03 04:56:25;;;;;;;16.30;6.27;;;3.00;99.90;;;;;;4881409;29;20211;-73
2022/12/03 04:58:51;;;;;;;18.80;7.53;;;2.80;99.90;;;;;;4881584;29;20254;-73
2022/12/03 05:01:18;;;;;;;14.60;6.97;;;2.70;99.90;;;;;;4881329;29;20208;-73
2022/12/03 05:03:45;;;;;;;14.40;6.80;;;2.70;99.90;;;;;;4881344;29;20689;-72
2022/12/03 05:06:12;;;;;;;14.53;6.43;;;2.60;99.90;;;;;;4881081;29;20678;-73
2022/12/03 05:08:38;;;;;;;16.23;7.17;;;2.60;99.90;;;;;;4880931;29;20231;-73
2022/12/03 05:11:06;;;;;;;19.97;6.67;;;2.60;99.90;;;;;;4881089;29;20219;-73
2022/12/03 05:13:34;;;;;;;15.27;6.83;;;2.60;99.90;;;;;;4881011;29;20243;-73
2022/12/03 05:16:00;;;;;;;15.17;7.13;;;2.60;99.90;;;;;;4881221;29;20211;-73
2022/12/03 05:18:27;;;;;;;15.30;6.90;;;2.50;99.90;;;;;;4880833;29;20234;-73
2022/12/03 05:20:53;;;;;;;14.07;6.80;;;2.60;99.90;;;;;;4880991;29;20215;-73
2022/12/03 05:23:22;;;;;;;15.77;7.47;;;2.50;99.90;;;;;;4881166;29;20567;-72
2022/12/03 05:25:49;;;;;;;15.67;6.77;;;2.60;99.90;;;;;;4880810;29;20215;-72
2022/12/03 05:28:15;;;;;;;11.50;6.30;;;2.50;99.90;;;;;;4880553;29;20227;-72
2022/12/03 05:30:44;;;;;;;16.17;6.70;;;2.50;99.90;;;;;;4880872;29;20230;-72
2022/12/03 05:33:10;;;;;;;14.27;6.30;;;2.60;99.90;;;;;;4880535;29;20239;-73
2022/12/03 05:35:37;;;;;;;16.97;7.33;;;2.50;99.90;;;;;;4880599;29;20229;-72
2022/12/03 05:38:04;;;;;;;16.20;7.43;;;2.50;99.90;;;;;;4880437;29;20235;-72
2022/12/03 05:40:31;;;;;;;18.57;7.70;;;2.50;99.90;;;;;;4880953;29;20215;-72
2022/12/03 05:42:57;;;;;;;15.67;6.77;;;2.40;99.90;;;;;;4880665;29;20217;-72
2022/12/03 05:45:25;;;;;;;15.70;7.80;;;2.40;99.90;;;;;;4880509;29;20222;-72
2022/12/03 05:47:54;;;;;;;13.77;6.70;;;2.40;99.90;;;;;;4880425;29;20233;-72
2022/12/03 05:50:23;;;;;;;14.07;6.73;;;2.30;99.90;;;;;;4880475;29;20217;-72
2022/12/03 05:52:50;;;;;;;14.37;6.53;;;2.30;99.90;;;;;;4879789;29;20250;-72
2022/12/03 05:55:18;;;;;;;16.27;7.63;;;2.30;99.90;;;;;;4879867;29;20489;-73
2022/12/03 05:57:45;;;;;;;15.93;7.13;;;2.30;99.90;;;;;;4879641;29;20235;-73
2022/12/03 06:00:14;;;;;;;14.63;6.73;;;2.40;99.90;;;;;;4880184;29;20215;-72
2022/12/03 06:02:41;;;;;;;16.63;6.97;;;2.40;99.90;;;;;;4880077;29;20237;-72
2022/12/03 06:05:11;;;;;;;16.33;6.93;;;2.50;99.90;;;;;;4880017;29;20644;-72
2022/12/03 06:07:38;;;;;;;14.93;7.37;;;2.60;99.90;;;;;;4879975;29;20235;-72
2022/12/03 06:10:06;;;;;;;15.13;7.07;;;2.80;99.90;;;;;;4880215;29;20211;-72
2022/12/03 06:12:33;;;;;;;15.67;6.73;;;2.70;99.90;;;;;;4880007;29;20243;-72
2022/12/03 06:15:00;;;;;;;14.00;6.70;;;2.80;99.90;;;;;;4880018;29;20211;-73
2022/12/03 06:17:27;;;;;;;15.90;7.67;;;2.70;99.90;;;;;;4880196;29;20245;-73
2022/12/03 06:19:54;;;;;;;15.57;6.87;;;2.60;99.90;;;;;;4879930;29;20225;-73
2022/12/03 06:22:22;;;;;;;15.53;6.97;;;2.50;99.90;;;;;;4880201;29;20207;-73
2022/12/03 06:24:49;;;;;;;13.83;7.07;;;2.60;99.90;;;;;;4880092;29;20211;-72
2022/12/03 06:27:17;;;;;;;20.10;7.90;;;2.60;99.90;;;;;;4879676;29;20279;-72
2022/12/03 06:29:43;;;;;;;14.47;6.43;;;2.80;99.90;;;;;;4879575;29;20598;-72
2022/12/03 06:32:11;;;;;;;15.03;7.20;;;2.80;99.90;;;;;;4879630;29;20235;-72
2022/12/03 06:34:37;;;;;;;17.27;7.40;;;2.90;99.90;;;;;;4879936;29;20215;-72
2022/12/03 06:37:04;;;;;;;16.67;7.03;;;2.90;99.90;;;;;;4879900;29;20227;-72
2022/12/03 06:39:33;;;;;;;16.87;7.63;;;2.90;99.90;;;;;;4879887;29;20211;-72
2022/12/03 06:41:59;;;;;;;13.27;6.40;;;2.90;99.90;;;;;;4879501;29;20261;-72
2022/12/03 06:44:26;;;;;;;13.37;6.37;;;2.80;99.90;;;;;;4879452;29;20226;-72
2022/12/03 06:46:53;;;;;;;18.33;7.50;;;2.70;99.90;;;;;;4879541;29;20211;-72
2022/12/03 06:49:20;;;;;;;14.03;7.67;;;2.60;99.90;;;;;;4879556;29;20211;-73
2022/12/03 06:51:47;;;;;;;15.30;7.23;;;2.60;99.90;;;;;;4879624;29;20215;-72
2022/12/03 06:54:13;;;;;;;16.47;7.03;;;2.70;99.90;;;;;;4879422;29;20214;-72
2022/12/03 06:56:41;;;;;;;14.23;7.83;;;2.70;99.90;;;;;;4879099;29;20218;-73
2022/12/03 06:59:08;;;;;;;17.37;7.53;;;2.90;99.90;;;;;;4879062;29;20211;-73
2022/12/03 07:01:35;;;;;;;18.93;7.13;;;2.80;99.90;;;;;;4879587;29;20207;-73
2022/12/03 07:04:02;;;;;;;17.17;7.40;;;2.90;99.90;;;;;;4879204;29;20215;-73
2022/12/03 07:06:29;;;;;;;19.20;7.50;;;2.90;99.90;;;;;;4879490;29;20263;-73
2022/12/03 07:08:56;;;;;;;16.93;7.43;;;2.90;99.90;;;;;;4879418;29;20283;-72
2022/12/03 07:11:31;;;;;;;15.13;7.27;;;2.90;99.90;;;;;;4879131;29;20221;-73
2022/12/03 07:14:02;;;;;;;16.50;7.20;;;3.00;99.90;;;;;;4879473;29;20238;-73
2022/12/03 07:16:29;;;;;;;18.10;7.80;;;3.10;99.90;;;;;;4879324;29;20217;-73
2022/12/03 07:18:56;;;;;;;17.67;7.83;;;3.10;99.90;;;;;;4879167;29;20235;-73
2022/12/03 07:21:23;;;;;;;17.77;7.43;;;3.00;99.90;;;;;;4879226;29;20221;-73
2022/12/03 07:23:49;;;;;;;18.10;6.83;;;2.80;99.90;;;;;;4879236;29;20219;-73
2022/12/03 07:26:16;;;;;;;17.13;6.93;;;2.90;99.90;;;;;;4878916;29;20214;-73
2022/12/03 07:28:43;;;;;;;20.63;8.23;;;2.90;99.90;;;;;;4878995;29;20231;-73
2022/12/03 07:31:11;;;;;;;16.07;7.53;;;2.90;99.90;;;;;;4879313;29;20211;-73
2022/12/03 07:33:38;;;;;;;15.27;6.70;;;3.00;99.90;;;;;;4879018;29;20714;-73
2022/12/03 07:36:05;;;;;;;18.70;7.67;;;2.90;99.90;;;;;;4879099;29;20217;-73
2022/12/03 07:38:32;;;;;;;14.07;7.13;;;2.90;99.90;;;;;;4878843;29;20234;-73
2022/12/03 07:40:59;;;;;;;15.60;7.50;;;2.90;99.90;;;;;;4879199;29;20222;-73
2022/12/03 07:43:25;;;;;;;19.50;7.90;;;2.90;99.90;;;;;;4878806;29;20697;-72
2022/12/03 07:45:52;;;;;;;18.37;7.60;;;3.00;99.90;;;;;;4878890;29;20219;-72
2022/12/03 07:48:20;;;;;;;16.90;7.83;;;3.10;99.90;;;;;;4878735;29;20239;-72
2022/12/03 07:50:47;;;;;;;20.03;8.70;;;3.20;99.90;;;;;;4878510;29;20340;-72
2022/12/03 07:53:14;;;;;;;16.50;7.43;;;3.20;99.90;;;;;;4878372;29;20359;-73
2022/12/03 07:55:41;;;;;;;15.03;7.20;;;3.40;99.90;;;;;;4878905;29;20314;-73
2022/12/03 07:58:08;;;;;;;17.83;7.57;;;3.30;99.90;;;;;;4878703;29;20231;-74
2022/12/03 08:00:35;;;;;;;17.27;7.00;;;3.30;99.90;;;;;;4880402;29;20315;-74
2022/12/03 08:03:01;;;;;;;19.20;7.83;;;3.40;99.90;;;;;;4877539;29;20211;-73
2022/12/03 08:05:30;;;;;;;16.07;6.77;;;3.30;99.90;;;;;;4878963;29;20654;-74
2022/12/03 08:07:56;;;;;;;16.63;7.30;;;3.20;99.90;;;;;;4878055;29;20227;-73
2022/12/03 08:10:25;;;;;;;17.43;7.53;;;3.00;99.90;;;;;;4877660;29;20300;-73
2022/12/03 08:12:52;;;;;;;18.33;8.50;;;3.00;99.90;;;;;;4878254;29;20246;-73
2022/12/03 08:15:22;;;;;;;16.00;8.03;;;3.00;99.90;;;;;;4884007;29;20226;-73
2022/12/03 08:17:54;;;;;;;15.33;7.63;;;3.10;99.90;;;;;;4882991;29;20227;-74
2022/12/03 08:20:23;;;;;;;16.93;7.40;;;3.30;99.90;;;;;;4881289;29;20211;-72
2022/12/03 08:22:54;;;;;;;19.47;7.53;;;3.50;99.90;;;;;;4883803;29;20313;-72
2022/12/03 08:25:22;;;;;;;17.43;8.00;;;3.30;99.90;;;;;;4889711;29;20693;-72
2022/12/03 08:27:51;;;;;;;17.10;7.97;;;3.20;99.90;;;;;;4884336;29;20246;-73
2022/12/03 08:30:18;;;;;;;15.33;7.70;;;3.10;99.90;;;;;;4881443;29;20215;-73
2022/12/03 08:32:45;;;;;;;18.60;9.43;;;3.10;99.90;;;;;;4883182;29;20235;-73
2022/12/03 08:35:13;;;;;;;19.13;8.00;;;3.10;99.90;;;;;;4881521;29;20207;-73
2022/12/03 08:37:40;;;;;;;20.03;7.93;;;3.20;99.90;;;;;;4883438;29;20238;-73
2022/12/03 08:40:23;;;;;;;18.73;7.83;;;3.30;99.90;;;;;;4883525;29;20316;-73
2022/12/03 08:42:50;;;;;;;16.30;7.50;;;3.20;99.90;;;;;;4883140;29;20223;-73
2022/12/03 08:45:33;;;;;;;16.73;7.93;;;3.10;99.90;;;;;;4892135;29;20308;-73
2022/12/03 08:48:04;;;;;;;22.20;8.47;;;3.30;99.90;;;;;;4882813;29;20223;-73
2022/12/03 08:50:33;;;;;;;18.80;7.83;;;3.30;99.90;;;;;;4883885;29;20214;-74
2022/12/03 08:53:15;;;;;;;19.10;8.07;;;3.50;99.90;;;;;;4880822;29;20231;-73
2022/12/03 08:55:46;;;;;;;17.73;7.43;;;3.30;99.90;;;;;;4883614;29;20211;-73
2022/12/03 08:58:21;;;;;;;18.30;8.60;;;3.20;99.90;;;;;;4892828;29;20223;-73
2022/12/03 09:00:48;;;;;;;18.93;8.80;;;3.20;99.90;;;;;;4898973;29;20209;-73
2022/12/03 09:03:18;;;;;;;17.57;8.33;;;3.30;99.90;;;;;;4898455;29;20214;-74
2022/12/03 09:05:45;;;;;;;20.60;8.17;;;3.40;99.90;;;;;;4901145;29;20214;-73
2022/12/03 09:08:12;;;;;;;15.40;7.07;;;3.40;99.90;;;;;;4902152;29;20236;-74
2022/12/03 09:10:39;;;;;;;19.93;8.20;;;3.40;99.90;;;;;;4901797;29;20207;-73
2022/12/03 09:13:07;;;;;;;17.40;7.90;;;3.30;99.90;;;;;;4900134;29;20235;-73
2022/12/03 09:15:34;;;;;;;19.30;8.27;;;3.10;99.90;;;;;;4899587;29;20216;-73
2022/12/03 09:18:01;;;;;;;20.20;8.67;;;3.10;99.90;;;;;;4899387;29;20728;-73
2022/12/03 09:20:27;;;;;;;19.07;8.30;;;3.20;99.90;;;;;;4899354;29;20615;-72
2022/12/03 09:22:54;;;;;;;17.20;8.73;;;3.40;99.90;;;;;;4899236;29;20598;-73
2022/12/03 09:25:21;;;;;;;20.40;8.80;;;3.30;99.90;;;;;;4899417;29;20214;-73
2022/12/03 09:27:48;;;;;;;20.60;9.37;;;3.20;99.90;;;;;;4898811;29;20582;-73
2022/12/03 09:30:17;;;;;;;16.20;8.63;;;3.20;99.90;;;;;;4899009;29;20570;-73
2022/12/03 09:32:43;;;;;;;21.27;8.73;;;3.20;99.90;;;;;;4899099;29;20210;-73
2022/12/03 09:35:11;;;;;;;19.83;8.73;;;3.20;99.90;;;;;;4898873;29;20575;-73
2022/12/03 09:37:38;;;;;;;19.93;7.80;;;3.30;99.90;;;;;;4899444;29;20233;-73
2022/12/03 09:40:07;;;;;;;16.40;7.97;;;3.40;99.90;;;;;;4899083;29;20213;-73
2022/12/03 09:42:34;;;;;;;22.27;9.20;;;3.30;99.90;;;;;;4897983;29;20218;-73
2022/12/03 09:45:03;;;;;;;22.30;8.23;;;3.30;99.90;;;;;;4897193;29;20211;-73
2022/12/03 09:47:31;;;;;;;19.00;8.87;;;3.40;99.90;;;;;;4896227;29;20232;-72
2022/12/03 09:49:58;;;;;;;20.67;8.53;;;3.40;99.90;;;;;;4896826;29;20233;-72
2022/12/03 09:52:28;;;;;;;20.80;8.93;;;3.40;99.90;;;;;;4897209;29;20210;-72
2022/12/03 09:54:55;;;;;;;14.87;6.30;;;3.40;99.90;;;;;;4896961;29;20713;-72
2022/12/03 09:57:21;;;;;;;17.30;8.47;;;3.40;99.90;;;;;;4898773;29;20237;-72
2022/12/03 09:59:48;;;;;;;17.07;7.80;;;3.40;99.90;;;;;;4898777;29;20697;-72
2022/12/03 10:02:21;;;;;;;17.63;7.60;;;3.50;99.90;;;;;;4898887;29;20214;-72
2022/12/03 10:04:49;;;;;;;18.77;7.50;;;3.60;99.90;;;;;;4899187;29;20550;-73
2022/12/03 10:07:16;;;;;;;18.60;9.30;;;3.50;99.90;;;;;;4898800;29;20702;-72
2022/12/03 10:09:43;;;;;;;21.70;9.30;;;3.60;99.90;;;;;;4898703;29;20222;-73
2022/12/03 10:12:13;;;;;;;10.23;6.57;;;3.60;99.90;;;;;;4898302;29;20214;-73
2022/12/03 10:14:40;;;;;;;19.70;8.53;;;3.70;99.90;;;;;;4898318;29;20233;-73
2022/12/03 10:17:07;;;;;;;20.33;8.33;;;3.60;99.90;;;;;;4898725;29;20230;-73
2022/12/03 10:19:36;;;;;;;18.87;7.90;;;3.80;99.90;;;;;;4898900;29;20593;-73
2022/12/03 10:22:04;;;;;;;19.07;8.50;;;3.90;99.90;;;;;;4898851;29;20238;-73
2022/12/03 10:24:33;;;;;;;23.30;8.87;;;3.90;99.90;;;;;;4898336;29;20216;-73
2022/12/03 10:27:01;;;;;;;17.90;9.03;;;4.00;99.90;;;;;;4898241;29;20230;-73
2022/12/03 10:29:29;;;;;;;20.03;7.27;;;4.00;99.90;;;;;;4898138;29;20217;-72
2022/12/03 10:31:58;;;;;;;18.03;8.70;;;4.00;99.90;;;;;;4898487;29;20237;-73
2022/12/03 10:34:30;;;;;;;19.47;8.27;;;3.90;99.90;;;;;;4898362;29;20237;-73
2022/12/03 10:37:16;;;;;;;21.87;8.70;;;4.00;99.90;;;;;;4898239;29;20321;-73
2022/12/03 10:39:53;;;;;;;22.67;8.43;;;3.90;99.90;;;;;;4897842;29;20692;-73
2022/12/03 10:42:20;;;;;;;16.90;8.37;;;3.80;99.90;;;;;;4897761;29;20222;-73
2022/12/03 10:44:47;;;;;;;18.40;8.60;;;3.90;99.90;;;;;;4897385;29;20217;-73
2022/12/03 10:47:14;;;;;;;20.13;8.70;;;3.80;99.90;;;;;;4898256;29;20234;-73
2022/12/03 10:49:42;;;;;;;17.50;7.83;;;3.70;99.90;;;;;;4898400;29;20217;-74
2022/12/03 10:52:22;;;;;;;25.10;7.87;;;3.80;99.90;;;;;;4898126;29;20704;-73
2022/12/03 10:54:49;;;;;;;14.93;7.50;;;3.60;99.90;;;;;;4898381;29;20241;-73
2022/12/03 10:57:16;;;;;;;17.00;7.53;;;3.50;99.90;;;;;;4897920;29;20253;-73
2022/12/03 10:59:43;;;;;;;17.70;7.23;;;3.50;99.90;;;;;;4897966;29;20206;-73
2022/12/03 11:02:18;;;;;;;17.23;7.23;;;3.50;99.90;;;;;;4897937;29;20216;-73
2022/12/03 11:04:45;;;;;;;20.00;8.20;;;3.60;99.90;;;;;;4897735;29;20206;-73
2022/12/03 11:07:16;;;;;;;14.60;6.93;;;3.60;99.90;;;;;;4897809;29;20720;-73
2022/12/03 11:09:45;;;;;;;15.93;7.60;;;3.60;99.90;;;;;;4897893;29;20210;-73
2022/12/03 11:12:19;;;;;;;17.17;7.53;;;3.60;99.90;;;;;;4897752;29;20688;-73
2022/12/03 11:15:06;;;;;;;20.43;8.67;;;3.70;99.90;;;;;;4897866;29;20233;-73
2022/12/03 11:17:45;;;;;;;21.17;8.40;;;3.70;99.90;;;;;;4897947;29;20238;-73
2022/12/03 11:20:33;;;;;;;22.50;8.90;;;3.70;99.90;;;;;;4897802;29;20221;-72
2022/12/03 11:23:01;;;;;;;21.23;7.13;;;3.90;99.90;;;;;;4897840;29;20261;-72
2022/12/03 11:25:46;;;;;;;21.07;7.57;;;3.80;99.90;;;;;;4897863;29;20721;-72
2022/12/03 11:28:37;;;;;;;15.67;7.10;;;3.70;99.90;;;;;;4897545;29;20290;-72
2022/12/03 11:31:10;;;;;;;17.73;7.97;;;3.70;99.90;;;;;;4897308;29;20697;-72
2022/12/03 11:33:38;;;;;;;17.67;7.50;;;3.80;99.90;;;;;;4897733;29;20245;-72
2022/12/03 11:36:20;;;;;;;19.57;7.97;;;3.80;99.90;;;;;;4897668;29;20313;-72
2022/12/03 11:38:56;;;;;;;17.37;7.67;;;3.80;99.90;;;;;;4897789;29;20238;-72
2022/12/03 11:41:27;;;;;;;14.13;7.50;;;3.70;99.90;;;;;;4897188;29;20274;-72
2022/12/03 11:44:28;;;;;;;18.20;7.43;;;3.60;99.90;;;;;;4897552;29;20221;-72
2022/12/03 11:47:00;;;;;;;17.30;7.73;;;3.70;99.90;;;;;;4897428;29;20257;-73
2022/12/03 11:49:37;;;;;;;17.87;7.33;;;3.80;99.90;;;;;;4897737;29;20207;-72
2022/12/03 11:52:20;;;;;;;20.93;8.60;;;3.90;99.90;;;;;;4899245;29;20249;-72
2022/12/03 11:54:50;;;;;;;14.93;7.40;;;3.80;99.90;;;;;;4900897;29;20245;-71
2022/12/03 11:57:36;;;;;;;12.33;6.27;;;4.00;99.90;;;;;;4900453;29;20294;-72
2022/12/03 12:00:14;;;;;;;17.17;7.53;;;4.00;99.90;;;;;;4900137;29;20217;-72
2022/12/03 12:02:41;;;;;;;16.90;7.67;;;3.90;99.90;;;;;;4899996;29;20218;-74
2022/12/03 12:05:20;;;;;;;19.30;8.33;;;4.00;99.90;;;;;;4899997;29;20206;-75
2022/12/03 12:07:47;;;;;;;17.63;7.20;;;4.10;99.90;;;;;;4900574;29;20230;-72
2022/12/03 12:10:39;;;;;;;17.93;7.60;;;3.90;99.90;;;;;;4901079;29;20210;-73
2022/12/03 12:13:06;;;;;;;12.70;6.80;;;3.90;99.90;;;;;;4900663;29;20249;-72
2022/12/03 12:15:41;;;;;;;18.50;7.90;;;3.70;99.90;;;;;;4900780;29;20261;-72
2022/12/03 12:18:35;;;;;;;23.67;7.43;;;3.70;99.90;;;;;;4899844;29;20234;-72
2022/12/03 12:21:41;;;;;;;17.53;7.20;;;3.80;99.90;;;;;;4901110;29;20226;-72
2022/12/03 12:24:30;;;;;;;14.77;6.07;;;3.70;99.90;;;;;;4900806;29;20218;-73
2022/12/03 12:27:00;;;;;;;13.97;6.77;;;3.60;99.90;;;;;;4900840;29;20321;-72
2022/12/03 12:29:28;;;;;;;21.23;7.43;;;3.60;99.90;;;;;;4900565;29;20215;-72
2022/12/03 12:32:06;;;;;;;17.20;6.70;;;3.70;99.90;;;;;;4900608;29;20380;-72
2022/12/03 12:34:33;;;;;;;20.03;7.13;;;3.80;99.90;;;;;;4899143;29;20248;-72
2022/12/03 12:37:00;;;;;;;17.67;7.77;;;3.90;99.90;;;;;;4900082;29;20278;-73
2022/12/03 12:39:27;;;;;;;21.33;8.23;;;3.80;99.90;;;;;;4900328;29;20646;-72
2022/12/03 12:41:54;;;;;;;22.47;8.93;;;3.90;99.90;;;;;;4900125;29;20218;-73
2022/12/03 12:44:25;;;;;;;13.70;6.57;;;4.00;99.90;;;;;;4900203;29;20214;-72
2022/12/03 12:46:53;;;;;;;13.00;6.07;;;4.00;99.90;;;;;;4898901;29;20320;-72
2022/12/03 12:49:25;;;;;;;16.17;6.77;;;3.80;99.90;;;;;;4900079;29;20215;-72
2022/12/03 12:51:53;;;;;;;18.23;7.47;;;3.90;99.90;;;;;;4900105;29;20237;-72
2022/12/03 12:54:20;;;;;;;17.00;7.27;;;3.80;99.90;;;;;;4899982;29;20238;-72
2022/12/03 12:56:49;;;;;;;18.50;8.27;;;3.70;99.90;;;;;;4899927;29;20210;-72
2022/12/03 12:59:18;;;;;;;15.53;7.43;;;3.60;99.90;;;;;;4900039;29;20221;-72
2022/12/03 13:01:47;;;;;;;16.93;7.47;;;3.70;99.90;;;;;;4899797;29;20221;-72
2022/12/03 13:04:16;;;;;;;17.17;7.17;;;3.60;99.90;;;;;;4900087;29;20222;-73
2022/12/03 13:06:44;;;;;;;17.13;7.33;;;3.60;99.90;;;;;;4900128;29;20210;-72
2022/12/03 13:09:16;;;;;;;19.93;7.30;;;3.70;99.90;;;;;;4899930;29;20570;-72
2022/12/03 13:11:45;;;;;;;20.87;8.10;;;3.80;99.90;;;;;;4899673;29;20210;-72
2022/12/03 13:14:18;;;;;;;17.27;7.27;;;3.80;99.90;;;;;;4899766;29;20234;-72
2022/12/03 13:16:46;;;;;;;16.10;7.37;;;3.90;99.90;;;;;;4899707;29;20210;-72
2022/12/03 13:19:21;;;;;;;14.50;6.47;;;3.90;99.90;;;;;;4899475;29;20210;-73